Hovedside
METAR-TAF:

METAR-TAF

Lufthavner :

Florø lufthavn

Florø, Norge

breddegrad: 61-35N, lengdegrad: 005-02E, høyde over havet: 0 m

Gjeldene værobservasjon

Denne rapporten ble laget for 13 minutter siden, klokken 20:20 UTC
Vind 11 kt fra Nord-nordvest
Temperatur 9°C
Luftfuktighet 66%
Trykk 1000 hPa
Sikt 10 km eller mer
Få skyer i en høyde av 5000 ft

METAR: ENFL 262020Z 34011KT 9999 FEW050 09/03 Q1000

Tid: 22:33 (20:33 UTC)

Varsel

Denne rapporten ble laget for 3 timer og 33 minutter siden, klokken 17:00 UTC
Varsel gyldig fra 26. klokken 18 UTC til 26. klokken 22 UTC
Vind 15 kt fra Nord-nordvest
Sikt 10 km eller mer
Få skyer i en høyde av 4500 ft

TAF: ENFL 261700Z 2618/2622 33015KT 9999 FEW045

Værobservasjoner og værvarsel for over 4000 flyplasser (METAR- og TAF-rapporter).

Tilgjengelige stasjoner er representert av de røde og gule prikkene på kartet.

Hold musepekeren over prikken for å se navnet på stasjonen.

Klikk så for å se værobservasjoner og -varsler.

For å forandre kartet kan du klikke på den grønne knappen med svart kryss for å zoome inn, på den grønne knappen med strek for å zoome ut, eller på de grønne pilene for å se tilstøtende kart.


METAR-TAF: